Flight Track Log - Related Links

Times and Time Zones

All times are in EDT time to prevent confusion due to time zone crossing. See the EJM6 flight status page for this flight to view local times or setup timezone preferences in your user account.


Time Position Orientation Groundspeed Altitude Reporting Facility
EDT Latitude Longitude Course Direction KTS MPH feet Rate Location/Type
Fri 12:37:22 PM 24.6739 -81.7150 343° North 273 314 5,500  Level Miami Center
Fri 12:38:22 PM 24.7317 -81.6647 38° Northeast 290 334 9,400 3,450 Climbing Miami Center
Fri 12:39:22 PM 24.7983 -81.6081 38° Northeast 296 341 12,400 2,900 Climbing Miami Center
Fri 12:40:22 PM 24.8714 -81.5467 37° Northeast 309 356 15,200 2,750 Climbing Miami Center
Fri 12:41:00 PM 25.1035 -81.3365 31° Northeast  Level FlightAware Approximate
Fri 12:41:22 PM 24.9483 -81.4856 36° Northeast 328 377 17,900  Level Miami Center
Fri 12:42:00 PM 25.2092 -81.3364 343° North  Level FlightAware Approximate
Fri 12:42:22 PM 25.0256 -81.4219 37° Northeast 328 377 20,600  Level Miami Center
Fri 12:43:22 PM 25.1147 -81.3747 26° Northeast 430 495 22,900 2,200 Climbing Miami Center
Fri 12:44:22 PM 25.2181 -81.3464 14° North 396 456 25,000 1,900 Climbing Miami Center
Fri 12:45:22 PM 25.3233 -81.3136 16° North 385 443 26,700 1,800 Climbing Miami Center
Fri 12:46:22 PM 25.4308 -81.2783 17° North 390 449 28,600 1,700 Climbing Miami Center
Fri 12:47:22 PM 25.5322 -81.2453 16° North 396 456 30,100 1,450 Climbing Miami Center
Fri 12:48:22 PM 25.6472 -81.2381 North 401 461 31,500 1,350 Climbing Miami Center
Fri 12:49:22 PM 25.7661 -81.2444 357° North 413 475 32,800 1,400 Climbing Miami Center
Fri 12:50:22 PM 25.8831 -81.2489 358° North 419 482 34,300 1,550 Climbing Miami Center
Fri 12:51:22 PM 26.0019 -81.2531 358° North 419 482 35,900 1,650 Climbing Miami Center
Fri 12:52:22 PM 26.1167 -81.2575 358° North 419 482 37,600 1,600 Climbing Miami Center
Fri 12:53:22 PM 26.2250 -81.2614 358° North 407 468 39,100 1,150 Climbing Miami Center
Fri 12:54:22 PM 26.3336 -81.2631 359° North 395 455 39,900 800 Climbing Miami Center
Fri 12:55:22 PM 26.4419 -81.2672 358° North 389 448 40,700 550 Climbing Miami Center
Fri 12:56:22 PM 26.5589 -81.2692 359° North 380 437 41,000 150 Climbing Miami Center
Fri 12:57:22 PM 26.6736 -81.2758 357° North 400 460 41,000  Level Miami Center
Fri 12:58:22 PM 26.7797 -81.2822 357° North 416 479 41,000  Level Miami Center
Fri 12:59:22 PM 26.9111 -81.2894 357° North 426 490 41,000 -50 Level Miami Center
Fri 01:00:22 PM 27.0278 -81.2939 358° North 426 490 40,900  Descending Miami Center
Fri 01:01:22 PM 27.1486 -81.3033 356° North 421 484 41,000 50 Climbing Miami Center
Fri 01:02:22 PM 27.2653 -81.3125 356° North 421 484 41,000  Level Miami Center
Fri 01:03:22 PM 27.3756 -81.3214 356° North 427 491 41,000  Level Miami Center
Fri 01:04:22 PM 27.4944 -81.3258 358° North 427 491 41,000  Level Miami Center
Fri 01:05:22 PM 27.6111 -81.3353 356° North 422 486 41,000  Level Miami Center
Fri 01:06:22 PM 27.7319 -81.3447 356° North 422 486 41,000  Level Miami Center
Fri 01:07:22 PM 27.8611 -81.3519 357° North 422 486 41,000  Level Miami Center
Fri 01:08:22 PM 27.9839 -81.3592 357° North 422 486 41,000  Level Miami Center
Fri 01:09:22 PM 28.0922 -81.3658 357° North 422 486 41,000  Level Miami Center
Fri 01:10:22 PM 28.2108 -81.3731 357° North 427 491 41,000  Level Miami Center
Fri 01:11:22 PM 28.3442 -81.3831 356° North 427 491 41,000  Level Miami Center
Fri 01:12:22 PM 28.4692 -81.3906 357° North 432 497 41,000  Level Miami Center
Fri 01:13:22 PM 28.5897 -81.3978 357° North 432 497 41,000  Level Miami Center
Fri 01:14:22 PM 28.7086 -81.4050 357° North 432 497 41,000 -51 Level Miami Center
Fri 01:15:19 PM 28.8281 -81.4136 356° North 457 526 40,900 -51 Descending Jacksonville Center
Fri 01:16:19 PM 28.9511 -81.4189 358° North 463 533 40,900 50 Level Jacksonville Center
Fri 01:17:19 PM 29.0703 -81.4267 357° North 434 499 41,000 50 Climbing Jacksonville Center
Fri 01:18:19 PM 29.1914 -81.4344 357° North 434 499 41,000  Level Jacksonville Center
Fri 01:19:19 PM 29.2978 -81.4378 358° North 434 499 41,000  Level Jacksonville Center
Fri 01:20:19 PM 29.4333 -81.4189 North 437 503 41,000  Level Jacksonville Center
Fri 01:21:19 PM 29.5375 -81.4006 North 437 503 41,000  Level Jacksonville Center
Fri 01:22:19 PM 29.6583 -81.3869 North 437 503 41,000  Level Jacksonville Center
Fri 01:23:19 PM 29.7794 -81.3706 North 437 503 41,000  Level Jacksonville Center
Fri 01:24:19 PM 29.9147 -81.3542 North 437 503 41,000  Level Jacksonville Center
Fri 01:25:19 PM 30.0317 -81.3378 North 437 503 41,000  Level Jacksonville Center
Fri 01:26:19 PM 30.1483 -81.3239 North 431 496 41,000  Level Jacksonville Center
Fri 01:27:19 PM 30.2692 -81.3075 North 426 490 41,000  Level Jacksonville Center
Fri 01:28:19 PM 30.3881 -81.2936 North 426 490 41,000  Level Jacksonville Center
Fri 01:29:19 PM 30.5069 -81.2772 North 426 490 41,000  Level Jacksonville Center
Fri 01:30:19 PM 30.6256 -81.2631 North 426 490 41,000  Level Jacksonville Center
Fri 01:31:19 PM 30.7444 -81.2489 North 426 490 41,000  Level Jacksonville Center
Fri 01:32:19 PM 30.8653 -81.2347 North 426 490 41,000  Level Jacksonville Center
Fri 01:33:19 PM 30.9842 -81.2206 North 426 490 41,000  Level Jacksonville Center
Fri 01:34:19 PM 31.1050 -81.2039 North 419 482 41,000  Level Jacksonville Center
Fri 01:35:19 PM 31.2261 -81.1894 North 426 490 41,000  Level Jacksonville Center
Fri 01:36:19 PM 31.3447 -81.1678 North 426 490 41,000  Level Jacksonville Center
Fri 01:37:19 PM 31.4483 -81.1125 24° Northeast 436 502 41,000  Level Jacksonville Center
Fri 01:38:19 PM 31.5728 -81.0492 23° Northeast 444 511 41,000  Level Jacksonville Center
Fri 01:39:19 PM 31.6847 -80.9931 23° Northeast 444 511 41,000  Level Jacksonville Center
Fri 01:41:19 PM 31.9147 -80.8783 23° Northeast 439 505 41,000  Level Jacksonville Center
Fri 01:42:19 PM 32.0306 -80.8194 23° Northeast 445 512 41,000  Level Jacksonville Center
Fri 01:43:19 PM 32.1464 -80.7578 24° Northeast 445 512 41,000  Level Jacksonville Center
Fri 01:44:19 PM 32.2458 -80.7064 24° Northeast 445 512 41,000  Level Jacksonville Center
Fri 01:45:19 PM 32.3617 -80.6472 23° Northeast 445 512 41,000  Level Jacksonville Center
Fri 01:46:19 PM 32.4775 -80.5900 23° Northeast 445 512 41,000 -50 Level Jacksonville Center
Fri 01:47:19 PM 32.5911 -80.5281 25° Northeast 445 512 40,900  Descending Jacksonville Center
Fri 01:48:19 PM 32.7069 -80.4683 23° Northeast 445 512 41,000  Climbing Jacksonville Center
Fri 01:49:19 PM 32.8331 -80.4031 24° Northeast 440 506 40,900 -50 Descending Jacksonville Center
Fri 01:50:19 PM 32.9447 -80.3456 23° Northeast 440 506 40,900 50 Level Jacksonville Center
Fri 01:51:19 PM 33.0644 -80.2800 25° Northeast 454 522 41,000 50 Climbing Jacksonville Center
Fri 01:52:19 PM 33.1883 -80.2169 23° Northeast 454 522 41,000  Level Jacksonville Center
Fri 01:53:19 PM 33.3039 -80.1611 22° Northeast 466 536 41,000  Level Jacksonville Center
Fri 01:54:19 PM 33.4194 -80.0981 24° Northeast 461 531 41,000  Level Jacksonville Center
Fri 01:55:19 PM 33.5350 -80.0394 23° Northeast 456 525 41,000  Level Jacksonville Center
Fri 01:56:19 PM 33.6506 -79.9783 24° Northeast 456 525 41,000  Level Jacksonville Center
Fri 01:57:19 PM 33.7639 -79.9172 24° Northeast 456 525 41,000  Level Jacksonville Center
Fri 01:58:19 PM 33.8814 -79.8581 23° Northeast 456 525 41,000  Level Jacksonville Center
Fri 01:59:19 PM 33.9944 -79.7942 25° Northeast 451 519 41,000  Level Jacksonville Center
Fri 02:01:31 PM 34.2381 -79.6689 23° Northeast 433 498 41,000  Level Washington Center
Fri 02:02:31 PM 34.3442 -79.6089 25° Northeast 448 516 41,000  Level Washington Center
Fri 02:03:32 PM 34.4611 -79.5464 24° Northeast 448 516 41,000  Level Washington Center
Fri 02:04:32 PM 34.5758 -79.4864 23° Northeast 443 510 41,000  Level Washington Center
Fri 02:05:29 PM 34.6925 -79.4214 25° Northeast 448 516 41,000  Level Washington Center
Fri 02:06:30 PM 34.8072 -79.3608 23° Northeast 448 516 41,000  Level Washington Center
Fri 02:07:31 PM 34.9219 -79.2978 24° Northeast 448 516 41,000  Level Washington Center
Fri 02:08:32 PM 35.0364 -79.2347 24° Northeast 448 516 41,000  Level Washington Center
Fri 02:09:30 PM 35.1531 -79.1739 23° Northeast 448 516 41,000  Level Washington Center
Fri 02:10:31 PM 35.2675 -79.1128 24° Northeast 448 516 41,000  Level Washington Center
Fri 02:11:31 PM 35.3822 -79.0492 24° Northeast 448 516 41,000  Level Washington Center
Fri 02:12:32 PM 35.4967 -78.9878 24° Northeast 443 510 41,000  Level Washington Center
Fri 02:13:30 PM 35.6131 -78.9236 24° Northeast 448 516 41,000  Level Washington Center
Fri 02:14:30 PM 35.7422 -78.8550 23° Northeast 448 516 41,000  Level Washington Center
Fri 02:15:31 PM 35.8567 -78.7878 25° Northeast 448 516 41,000  Level Washington Center
Fri 02:16:32 PM 35.9733 -78.7233 24° Northeast 448 516 41,000  Level Washington Center
Fri 02:17:30 PM 36.0856 -78.6583 25° Northeast 448 516 41,000  Level Washington Center
Fri 02:18:31 PM 36.1997 -78.5933 25° Northeast 448 516 41,000  Level Washington Center
Fri 02:19:32 PM 36.3142 -78.5306 24° Northeast 448 516 41,000  Level Washington Center
Fri 02:20:30 PM 36.4283 -78.4678 24° Northeast 448 516 41,000  Level Washington Center
Fri 02:21:31 PM 36.5406 -78.3994 26° Northeast 448 516 41,000  Level Washington Center
Fri 02:22:31 PM 36.6547 -78.3364 24° Northeast 448 516 41,000  Level Washington Center
Fri 02:23:30 PM 36.7539 -78.2775 25° Northeast 442 509 41,000  Level Washington Center
Fri 02:24:30 PM 36.8658 -78.2139 24° Northeast 437 503 41,000  Level Washington Center
Fri 02:25:30 PM 36.9739 -78.1369 30° Northeast 437 503 41,000  Level Washington Center
Fri 02:26:31 PM 37.0717 -78.0569 33° Northeast 432 497 41,000  Level Washington Center
Fri 02:27:31 PM 37.1778 -77.9744 32° Northeast 432 497 41,000  Level Washington Center
Fri 02:28:32 PM 37.2814 -77.8967 31° Northeast 432 497 41,000  Level Washington Center
Fri 02:29:32 PM 37.3831 -77.8136 33° Northeast 432 497 41,000  Level Washington Center
Fri 02:30:31 PM 37.4847 -77.7328 32° Northeast 432 497 41,000  Level Washington Center
Fri 02:31:31 PM 37.5861 -77.6517 32° Northeast 432 497 41,000 -203 Level Washington Center
Fri 02:32:29 PM 37.6897 -77.5731 31° Northeast 432 497 40,600 -807 Descending Washington Center
Fri 02:33:30 PM 37.7953 -77.4892 32° Northeast 437 503 39,400 -1,180 Descending Washington Center
Fri 02:34:31 PM 37.9031 -77.4025 32° Northeast 442 509 38,200 -1,140 Descending Washington Center
Fri 02:35:31 PM 38.0108 -77.3100 34° Northeast 457 526 37,100 -992 Descending Washington Center
Fri 02:36:32 PM 38.1183 -77.2281 31° Northeast 457 526 36,200 -958 Descending Washington Center
Fri 02:37:30 PM 38.2300 -77.1328 34° Northeast 467 537 35,200 -1,008 Descending Washington Center
Fri 02:38:31 PM 38.3375 -77.0450 33° Northeast 466 536 34,200 -984 Descending Washington Center
Fri 02:39:32 PM 38.4492 -76.9569 32° Northeast 460 529 33,200 -992 Descending Washington Center
Fri 02:40:32 PM 38.5583 -76.8661 33° Northeast 466 536 32,200 -1,050 Descending Washington Center
Fri 02:41:32 PM 38.6700 -76.7722 33° Northeast 466 536 31,100 -1,169 Descending Washington Center
Fri 02:42:30 PM 38.7750 -76.6675 38° Northeast 466 536 29,900 -1,210 Descending Washington Center
Fri 02:43:31 PM 38.8742 -76.5489 43° Northeast 471 542 28,700 -1,180 Descending Washington Center
Fri 02:44:32 PM 38.9731 -76.4353 42° Northeast 471 542 27,500 -1,140 Descending Washington Center
Fri 02:45:32 PM 39.0717 -76.3189 42° Northeast 477 549 26,400 -756 Descending Washington Center
Fri 02:46:31 PM 39.1703 -76.2019 43° Northeast 477 549 26,000 -958 Descending Washington Center
Fri 02:47:31 PM 39.2897 -76.0769 39° Northeast 483 556 24,500 -1,884 Descending Washington Center
Fri 02:48:32 PM 39.3942 -75.9756 37° Northeast 483 556 22,200 -2,500 Descending Washington Center
Fri 02:49:31 PM 39.5069 -75.8739 35° Northeast 483 556 19,500 -2,571 Descending Washington Center
Fri 02:50:31 PM 39.6133 -75.7667 38° Northeast 483 556 17,100 -2,453 Descending Washington Center
Fri 02:52:10 PM 39.7833 -75.6000 37° Northeast 436 502 13,000 -1,547 Descending Philadelphia TRACON
Fri 02:53:10 PM 39.8833 -75.5167 33° Northeast 396 456 13,000  Level Philadelphia TRACON
Fri 02:54:10 PM 39.9667 -75.4333 37° Northeast 380 437 13,000  Level Philadelphia TRACON
Fri 02:55:11 PM 40.0500 -75.3667 31° Northeast 372 428 13,000  Level Philadelphia TRACON
Fri 02:56:10 PM 40.1333 -75.2833 37° Northeast 325 374 13,000 -605 Level Philadelphia TRACON
Fri 02:57:10 PM 40.2000 -75.2167 37° Northeast 319 367 11,800 -1,250 Descending Philadelphia TRACON
Fri 02:58:10 PM 40.2833 -75.1500 31° Northeast 310 357 10,500 -1,469 Descending Philadelphia TRACON
Fri 02:59:37 PM 40.3667 -75.0500 42° Northeast 306 352 8,200 -1,429 Descending New York TRACON
Fri 03:00:37 PM 40.4333 -74.9833 37° Northeast 299 344 7,000 -850 Descending New York TRACON
Fri 03:01:37 PM 40.4833 -74.9167 45° Northeast 301 346 6,500 -737 Descending New York TRACON
Fri 03:02:31 PM 40.5500 -74.8667 30° Northeast 288 331 5,600 -1,050 Descending New York TRACON
Fri 03:03:37 PM 40.6167 -74.8000 37° Northeast 283 326 4,400 -571 Descending New York TRACON
Fri 03:04:37 PM 40.6833 -74.7333 37° Northeast 286 329 4,400 -200 Level New York TRACON
Fri 03:05:37 PM 40.7500 -74.6667 37° Northeast 295 339 4,000 -200 Descending New York TRACON
Fri 03:06:37 PM 40.8167 -74.6000 37° Northeast 287 330 4,000  Level New York TRACON
Fri 03:07:37 PM 40.8833 -74.5333 37° Northeast 288 331 4,000  Level New York TRACON
Fri 03:08:37 PM 40.9333 -74.4833 37° Northeast 288 331 4,000  Level New York TRACON
Fri 03:09:37 PM 41.0000 -74.4167 37° Northeast 293 337 4,000  Level New York TRACON
Fri 03:10:37 PM 41.0667 -74.3667 29° Northeast 246 283 4,000 -421 Level New York TRACON
Fri 03:11:31 PM 41.1000 -74.3000 56° Northeast 210 242 3,200 -500 Descending New York TRACON
Fri 03:12:37 PM 41.1000 -74.2333 90° East 200 230 3,000 -95 Descending New York TRACON
Fri 03:13:37 PM 41.1000 -74.1500 90° East 211 243 3,000 -400 Level New York TRACON
Fri 03:14:37 PM 41.0833 -74.0833 108° East 197 227 2,200 -500 Descending New York TRACON
Fri 03:15:37 PM 41.0500 -74.0500 143° Southeast 188 216 2,000 -200 Descending New York TRACON

Login

Don't have an account? Register now (free) for customized features, flight alerts, and more!